sensor_id;sensor_type;location;lat;lon;timestamp;pressure;altitude;pressure_sealevel;temperature;humidity
11856;BME280;5987;53.140;8.904;2023-06-22T00:01:24;101981.34;;;16.74;100.00
11856;BME280;5987;53.140;8.904;2023-06-22T00:04:28;101978.53;;;16.56;100.00
11856;BME280;5987;53.140;8.904;2023-06-22T00:07:32;101983.22;;;16.51;100.00
11856;BME280;5987;53.140;8.904;2023-06-22T00:10:37;101991.16;;;16.51;100.00
11856;BME280;5987;53.140;8.904;2023-06-22T00:13:41;101995.41;;;16.55;100.00
11856;BME280;5987;53.140;8.904;2023-06-22T00:16:44;101987.44;;;16.55;100.00
11856;BME280;5987;53.140;8.904;2023-06-22T00:19:50;101990.03;;;16.57;100.00
11856;BME280;5987;53.140;8.904;2023-06-22T00:22:57;101988.22;;;16.57;100.00
11856;BME280;5987;53.140;8.904;2023-06-22T00:26:02;101988.91;;;16.42;100.00
11856;BME280;5987;53.140;8.904;2023-06-22T00:29:06;101992.66;;;16.36;100.00
11856;BME280;5987;53.140;8.904;2023-06-22T00:32:09;102001.19;;;16.22;100.00
11856;BME280;5987;53.140;8.904;2023-06-22T00:35:13;101994.09;;;16.23;100.00
11856;BME280;5987;53.140;8.904;2023-06-22T00:38:17;101994.31;;;16.18;100.00
11856;BME280;5987;53.140;8.904;2023-06-22T00:41:22;102001.56;;;16.13;100.00
11856;BME280;5987;53.140;8.904;2023-06-22T00:44:26;102001.19;;;16.22;100.00
11856;BME280;5987;53.140;8.904;2023-06-22T00:47:30;101993.19;;;16.24;100.00
11856;BME280;5987;53.140;8.904;2023-06-22T00:50:34;101991.78;;;16.15;100.00
11856;BME280;5987;53.140;8.904;2023-06-22T00:53:38;101994.94;;;16.03;100.00
11856;BME280;5987;53.140;8.904;2023-06-22T00:56:44;101997.03;;;15.94;100.00
11856;BME280;5987;53.140;8.904;2023-06-22T00:59:48;101992.63;;;15.95;100.00
11856;BME280;5987;53.140;8.904;2023-06-22T01:02:53;101985.16;;;16.05;100.00
11856;BME280;5987;53.140;8.904;2023-06-22T01:06:07;101988.38;;;16.11;100.00
11856;BME280;5987;53.140;8.904;2023-06-22T01:09:15;101985.88;;;16.08;100.00
11856;BME280;5987;53.140;8.904;2023-06-22T01:12:28;101990.97;;;16.13;100.00
11856;BME280;5987;53.140;8.904;2023-06-22T01:15:40;101984.34;;;16.03;100.00
11856;BME280;5987;53.140;8.904;2023-06-22T01:18:54;101984.34;;;16.03;100.00
11856;BME280;5987;53.140;8.904;2023-06-22T01:22:02;101980.03;;;16.00;100.00
11856;BME280;5987;53.140;8.904;2023-06-22T01:25:13;101976.47;;;16.01;100.00
11856;BME280;5987;53.140;8.904;2023-06-22T01:28:43;101980.63;;;16.07;100.00
11856;BME280;5987;53.140;8.904;2023-06-22T01:31:49;101971.09;;;16.03;100.00
11856;BME280;5987;53.140;8.904;2023-06-22T01:34:54;101975.69;;;15.99;100.00
11856;BME280;5987;53.140;8.904;2023-06-22T01:37:58;101978.44;;;15.96;100.00
11856;BME280;5987;53.140;8.904;2023-06-22T01:41:03;101977.72;;;15.92;100.00
11856;BME280;5987;53.140;8.904;2023-06-22T01:44:10;101971.53;;;15.92;100.00
11856;BME280;5987;53.140;8.904;2023-06-22T01:47:15;101966.38;;;15.89;100.00
11856;BME280;5987;53.140;8.904;2023-06-22T01:50:20;101964.59;;;15.89;100.00
11856;BME280;5987;53.140;8.904;2023-06-22T01:53:24;101962.59;;;15.94;100.00
11856;BME280;5987;53.140;8.904;2023-06-22T01:56:28;101951.22;;;15.92;100.00
11856;BME280;5987;53.140;8.904;2023-06-22T01:59:39;101950.88;;;15.80;100.00
11856;BME280;5987;53.140;8.904;2023-06-22T02:02:54;101951.19;;;15.70;100.00
11856;BME280;5987;53.140;8.904;2023-06-22T02:06:08;101954.03;;;15.66;100.00
11856;BME280;5987;53.140;8.904;2023-06-22T02:09:19;101961.16;;;15.64;100.00
11856;BME280;5987;53.140;8.904;2023-06-22T02:12:26;101956.81;;;15.63;100.00
11856;BME280;5987;53.140;8.904;2023-06-22T02:15:33;101960.38;;;15.61;100.00
11856;BME280;5987;53.140;8.904;2023-06-22T02:18:37;101962.91;;;15.65;100.00
11856;BME280;5987;53.140;8.904;2023-06-22T02:21:42;101962.53;;;15.52;100.00
11856;BME280;5987;53.140;8.904;2023-06-22T02:24:46;101952.84;;;15.51;100.00
11856;BME280;5987;53.140;8.904;2023-06-22T02:27:50;101953.19;;;15.43;100.00
11856;BME280;5987;53.140;8.904;2023-06-22T02:30:55;101950.34;;;15.48;100.00
11856;BME280;5987;53.140;8.904;2023-06-22T02:34:00;101967.13;;;15.47;100.00
11856;BME280;5987;53.140;8.904;2023-06-22T02:37:04;101962.66;;;15.49;100.00
11856;BME280;5987;53.140;8.904;2023-06-22T02:40:09;101969.53;;;15.31;100.00
11856;BME280;5987;53.140;8.904;2023-06-22T02:43:13;101978.75;;;15.20;100.00
11856;BME280;5987;53.140;8.904;2023-06-22T02:46:18;101979.84;;;15.15;100.00
11856;BME280;5987;53.140;8.904;2023-06-22T02:49:22;101968.44;;;15.13;100.00
11856;BME280;5987;53.140;8.904;2023-06-22T02:52:26;101964.06;;;15.12;100.00
11856;BME280;5987;53.140;8.904;2023-06-22T02:55:30;101969.41;;;15.10;100.00
11856;BME280;5987;53.140;8.904;2023-06-22T02:58:34;101965.03;;;15.09;100.00
11856;BME280;5987;53.140;8.904;2023-06-22T03:01:42;101971.03;;;15.14;100.00
11856;BME280;5987;53.140;8.904;2023-06-22T03:04:46;101970.44;;;15.06;100.00
11856;BME280;5987;53.140;8.904;2023-06-22T03:07:51;101975.84;;;15.03;100.00
11856;BME280;5987;53.140;8.904;2023-06-22T03:10:55;101973.28;;;15.01;100.00
11856;BME280;5987;53.140;8.904;2023-06-22T03:13:59;101985.63;;;15.01;100.00
11856;BME280;5987;53.140;8.904;2023-06-22T03:17:05;101979.66;;;14.96;100.00
11856;BME280;5987;53.140;8.904;2023-06-22T03:20:10;101984.50;;;15.08;100.00
11856;BME280;5987;53.140;8.904;2023-06-22T03:23:14;101985.47;;;15.05;100.00
11856;BME280;5987;53.140;8.904;2023-06-22T03:26:19;101981.97;;;15.05;100.00
11856;BME280;5987;53.140;8.904;2023-06-22T03:29:23;101978.84;;;15.17;100.00
11856;BME280;5987;53.140;8.904;2023-06-22T03:32:32;101983.72;;;15.28;100.00
11856;BME280;5987;53.140;8.904;2023-06-22T03:35:36;101974.63;;;15.35;100.00
11856;BME280;5987;53.140;8.904;2023-06-22T03:38:40;101984.56;;;15.30;100.00
11856;BME280;5987;53.140;8.904;2023-06-22T03:41:44;101988.25;;;15.48;100.00
11856;BME280;5987;53.140;8.904;2023-06-22T03:44:48;101984.09;;;15.65;100.00
11856;BME280;5987;53.140;8.904;2023-06-22T03:47:54;101988.00;;;15.76;100.00
11856;BME280;5987;53.140;8.904;2023-06-22T03:50:59;101997.19;;;15.68;100.00
11856;BME280;5987;53.140;8.904;2023-06-22T03:54:03;101993.31;;;15.76;100.00
11856;BME280;5987;53.140;8.904;2023-06-22T03:57:07;101997.56;;;15.82;100.00
11856;BME280;5987;53.140;8.904;2023-06-22T04:00:13;101996.44;;;15.88;100.00
11856;BME280;5987;53.140;8.904;2023-06-22T04:03:19;101997.03;;;15.94;100.00
11856;BME280;5987;53.140;8.904;2023-06-22T04:06:23;101997.66;;;16.01;100.00
11856;BME280;5987;53.140;8.904;2023-06-22T04:09:27;101992.72;;;15.92;100.00
11856;BME280;5987;53.140;8.904;2023-06-22T04:12:31;102001.63;;;15.91;100.00
11856;BME280;5987;53.140;8.904;2023-06-22T04:15:35;102003.16;;;15.97;100.00
11856;BME280;5987;53.140;8.904;2023-06-22T04:18:40;101997.88;;;16.17;100.00
11856;BME280;5987;53.140;8.904;2023-06-22T04:21:44;102002.13;;;16.21;100.00
11856;BME280;5987;53.140;8.904;2023-06-22T04:24:51;101999.13;;;16.51;100.00
11856;BME280;5987;53.140;8.904;2023-06-22T04:27:55;102008.84;;;16.71;100.00
11856;BME280;5987;53.140;8.904;2023-06-22T04:30:59;102001.06;;;16.87;100.00
11856;BME280;5987;53.140;8.904;2023-06-22T04:34:07;101999.47;;;16.83;100.00
11856;BME280;5987;53.140;8.904;2023-06-22T04:37:11;101995.31;;;16.77;100.00
11856;BME280;5987;53.140;8.904;2023-06-22T04:40:18;101991.28;;;16.89;100.00
11856;BME280;5987;53.140;8.904;2023-06-22T04:43:22;101988.34;;;16.95;100.00
11856;BME280;5987;53.140;8.904;2023-06-22T04:46:26;101992.66;;;17.17;100.00
11856;BME280;5987;53.140;8.904;2023-06-22T04:49:31;101987.00;;;17.44;100.00
11856;BME280;5987;53.140;8.904;2023-06-22T04:52:37;101983.47;;;17.62;100.00
11856;BME280;5987;53.140;8.904;2023-06-22T04:55:40;101985.25;;;17.81;100.00
11856;BME280;5987;53.140;8.904;2023-06-22T04:58:48;101981.25;;;18.09;100.00
11856;BME280;5987;53.140;8.904;2023-06-22T05:01:54;101978.25;;;18.32;100.00
11856;BME280;5987;53.140;8.904;2023-06-22T05:04:59;101981.41;;;18.23;100.00
11856;BME280;5987;53.140;8.904;2023-06-22T05:08:03;101976.16;;;18.39;100.00
11856;BME280;5987;53.140;8.904;2023-06-22T05:11:09;101979.03;;;17.99;100.00
11856;BME280;5987;53.140;8.904;2023-06-22T05:14:13;101975.16;;;18.24;100.00
11856;BME280;5987;53.140;8.904;2023-06-22T05:17:17;101974.97;;;18.45;100.00
11856;BME280;5987;53.140;8.904;2023-06-22T05:20:22;101969.28;;;18.52;100.00
11856;BME280;5987;53.140;8.904;2023-06-22T05:23:26;101966.34;;;19.08;100.00
11856;BME280;5987;53.140;8.904;2023-06-22T05:26:34;101958.03;;;19.14;100.00
11856;BME280;5987;53.140;8.904;2023-06-22T05:29:38;101953.19;;;19.85;100.00
11856;BME280;5987;53.140;8.904;2023-06-22T05:32:42;101955.78;;;19.70;100.00
11856;BME280;5987;53.140;8.904;2023-06-22T05:35:48;101947.41;;;20.37;100.00
11856;BME280;5987;53.140;8.904;2023-06-22T05:38:52;101952.41;;;20.58;100.00
11856;BME280;5987;53.140;8.904;2023-06-22T05:41:56;101950.75;;;20.86;100.00
11856;BME280;5987;53.140;8.904;2023-06-22T05:45:00;101951.28;;;21.05;100.00
11856;BME280;5987;53.140;8.904;2023-06-22T05:48:05;101952.22;;;21.19;100.00
11856;BME280;5987;53.140;8.904;2023-06-22T05:51:10;101958.66;;;21.29;100.00
11856;BME280;5987;53.140;8.904;2023-06-22T05:54:14;101949.31;;;21.91;100.00
11856;BME280;5987;53.140;8.904;2023-06-22T05:57:20;101947.81;;;21.87;100.00
11856;BME280;5987;53.140;8.904;2023-06-22T06:00:24;101938.69;;;22.17;100.00
11856;BME280;5987;53.140;8.904;2023-06-22T06:03:29;101939.88;;;22.13;100.00
11856;BME280;5987;53.140;8.904;2023-06-22T06:06:34;101936.50;;;21.96;100.00
11856;BME280;5987;53.140;8.904;2023-06-22T06:09:39;101929.19;;;21.85;100.00
11856;BME280;5987;53.140;8.904;2023-06-22T06:12:43;101937.13;;;21.87;100.00
11856;BME280;5987;53.140;8.904;2023-06-22T06:15:47;101939.53;;;21.50;100.00
11856;BME280;5987;53.140;8.904;2023-06-22T06:18:53;101941.72;;;21.16;100.00
11856;BME280;5987;53.140;8.904;2023-06-22T06:22:00;101949.97;;;20.69;100.00
11856;BME280;5987;53.140;8.904;2023-06-22T06:25:04;101945.34;;;20.43;100.00
11856;BME280;5987;53.140;8.904;2023-06-22T06:28:08;101942.28;;;20.49;100.00
11856;BME280;5987;53.140;8.904;2023-06-22T06:31:12;101930.44;;;20.83;100.00
11856;BME280;5987;53.140;8.904;2023-06-22T06:34:19;101944.13;;;21.06;100.00
11856;BME280;5987;53.140;8.904;2023-06-22T06:37:24;101938.50;;;21.80;100.00
11856;BME280;5987;53.140;8.904;2023-06-22T06:40:30;101931.44;;;22.70;100.00
11856;BME280;5987;53.140;8.904;2023-06-22T06:43:35;101930.16;;;22.63;100.00
11856;BME280;5987;53.140;8.904;2023-06-22T06:46:38;101925.53;;;22.26;100.00
11856;BME280;5987;53.140;8.904;2023-06-22T06:49:44;101928.03;;;22.55;100.00
11856;BME280;5987;53.140;8.904;2023-06-22T06:52:55;101919.97;;;22.68;100.00
11856;BME280;5987;53.140;8.904;2023-06-22T06:56:01;101927.09;;;23.43;100.00
11856;BME280;5987;53.140;8.904;2023-06-22T06:59:05;101921.19;;;23.87;100.00
11856;BME280;5987;53.140;8.904;2023-06-22T07:02:09;101919.84;;;24.28;100.00
11856;BME280;5987;53.140;8.904;2023-06-22T07:05:13;101923.44;;;24.62;100.00
11856;BME280;5987;53.140;8.904;2023-06-22T07:08:18;101924.16;;;24.53;100.00
11856;BME280;5987;53.140;8.904;2023-06-22T07:11:22;101923.03;;;25.12;100.00
11856;BME280;5987;53.140;8.904;2023-06-22T07:14:26;101918.94;;;24.63;100.00
11856;BME280;5987;53.140;8.904;2023-06-22T07:17:30;101925.00;;;24.54;100.00
11856;BME280;5987;53.140;8.904;2023-06-22T07:20:34;101925.69;;;24.33;100.00
11856;BME280;5987;53.140;8.904;2023-06-22T07:23:39;101925.63;;;24.91;100.00
11856;BME280;5987;53.140;8.904;2023-06-22T07:26:43;101928.69;;;24.87;100.00
11856;BME280;5987;53.140;8.904;2023-06-22T07:29:48;101918.81;;;24.64;100.00
11856;BME280;5987;53.140;8.904;2023-06-22T07:32:52;101916.22;;;25.52;100.00
11856;BME280;5987;53.140;8.904;2023-06-22T07:35:56;101905.91;;;25.90;100.00
11856;BME280;5987;53.140;8.904;2023-06-22T07:39:01;101912.59;;;25.95;100.00
11856;BME280;5987;53.140;8.904;2023-06-22T07:42:07;101917.81;;;26.08;100.00
11856;BME280;5987;53.140;8.904;2023-06-22T07:45:11;101922.47;;;24.75;100.00
11856;BME280;5987;53.140;8.904;2023-06-22T07:48:15;101912.97;;;25.48;100.00
11856;BME280;5987;53.140;8.904;2023-06-22T07:51:19;101909.69;;;25.66;100.00
11856;BME280;5987;53.140;8.904;2023-06-22T07:54:24;101913.75;;;25.16;100.00
11856;BME280;5987;53.140;8.904;2023-06-22T07:57:29;101905.91;;;25.25;100.00
11856;BME280;5987;53.140;8.904;2023-06-22T08:00:36;101899.28;;;25.40;100.00
11856;BME280;5987;53.140;8.904;2023-06-22T08:03:40;101892.03;;;25.73;100.00
11856;BME280;5987;53.140;8.904;2023-06-22T08:06:44;101892.72;;;25.33;100.00
11856;BME280;5987;53.140;8.904;2023-06-22T08:09:49;101886.09;;;25.70;100.00
11856;BME280;5987;53.140;8.904;2023-06-22T08:12:53;101887.16;;;26.21;100.00
11856;BME280;5987;53.140;8.904;2023-06-22T08:15:57;101879.69;;;25.49;100.00
11856;BME280;5987;53.140;8.904;2023-06-22T08:19:01;101877.06;;;25.59;100.00
11856;BME280;5987;53.140;8.904;2023-06-22T08:22:05;101879.72;;;25.71;100.00
11856;BME280;5987;53.140;8.904;2023-06-22T08:25:11;101872.53;;;26.13;100.00
11856;BME280;5987;53.140;8.904;2023-06-22T08:28:15;101873.53;;;25.59;100.00
11856;BME280;5987;53.140;8.904;2023-06-22T08:31:20;101872.31;;;26.05;100.00
11856;BME280;5987;53.140;8.904;2023-06-22T08:34:24;101879.06;;;25.78;100.00
11856;BME280;5987;53.140;8.904;2023-06-22T08:37:30;101880.44;;;26.36;100.00
11856;BME280;5987;53.140;8.904;2023-06-22T08:40:40;101878.56;;;26.36;100.00
11856;BME280;5987;53.140;8.904;2023-06-22T08:43:45;101873.28;;;27.07;97.65
11856;BME280;5987;53.140;8.904;2023-06-22T08:46:49;101864.94;;;27.19;93.44
11856;BME280;5987;53.140;8.904;2023-06-22T08:49:54;101865.75;;;26.91;94.58
11856;BME280;5987;53.140;8.904;2023-06-22T08:52:58;101863.44;;;26.86;92.40
11856;BME280;5987;53.140;8.904;2023-06-22T08:56:04;101859.78;;;26.87;92.61
11856;BME280;5987;53.140;8.904;2023-06-22T08:59:08;101854.31;;;27.37;94.38
11856;BME280;5987;53.140;8.904;2023-06-22T09:02:11;101844.31;;;26.79;92.54
11856;BME280;5987;53.140;8.904;2023-06-22T09:05:17;101847.94;;;27.48;91.00
11856;BME280;5987;53.140;8.904;2023-06-22T09:08:21;101855.28;;;27.76;91.37
11856;BME280;5987;53.140;8.904;2023-06-22T09:11:26;101856.72;;;27.50;87.96
11856;BME280;5987;53.140;8.904;2023-06-22T09:14:31;101853.97;;;26.51;99.81
11856;BME280;5987;53.140;8.904;2023-06-22T09:17:35;101854.84;;;27.02;96.70
11856;BME280;5987;53.140;8.904;2023-06-22T09:20:39;101837.38;;;27.26;97.55
11856;BME280;5987;53.140;8.904;2023-06-22T09:23:43;101850.44;;;27.01;98.52
11856;BME280;5987;53.140;8.904;2023-06-22T09:26:50;101842.09;;;27.63;91.44
11856;BME280;5987;53.140;8.904;2023-06-22T09:29:54;101829.53;;;27.91;94.81
11856;BME280;5987;53.140;8.904;2023-06-22T09:32:59;101835.59;;;27.36;95.59
11856;BME280;5987;53.140;8.904;2023-06-22T09:36:04;101818.53;;;27.06;100.00
11856;BME280;5987;53.140;8.904;2023-06-22T09:39:09;101827.50;;;27.46;97.90
11856;BME280;5987;53.140;8.904;2023-06-22T09:42:14;101825.91;;;27.33;91.05
11856;BME280;5987;53.140;8.904;2023-06-22T09:45:26;101811.44;;;27.25;85.10
11856;BME280;5987;53.140;8.904;2023-06-22T09:48:30;101812.44;;;27.43;87.89
11856;BME280;5987;53.140;8.904;2023-06-22T09:51:34;101816.28;;;26.61;94.95
11856;BME280;5987;53.140;8.904;2023-06-22T09:54:38;101811.28;;;26.46;95.54
11856;BME280;5987;53.140;8.904;2023-06-22T09:57:43;101810.00;;;26.41;100.00
11856;BME280;5987;53.140;8.904;2023-06-22T10:00:47;101799.25;;;26.50;100.00
11856;BME280;5987;53.140;8.904;2023-06-22T10:03:52;101796.16;;;25.93;100.00
11856;BME280;5987;53.140;8.904;2023-06-22T10:06:58;101798.09;;;26.43;100.00
11856;BME280;5987;53.140;8.904;2023-06-22T10:10:02;101793.97;;;26.90;100.00
11856;BME280;5987;53.140;8.904;2023-06-22T10:13:10;101785.44;;;26.84;95.80
11856;BME280;5987;53.140;8.904;2023-06-22T10:16:14;101789.25;;;26.31;100.00
11856;BME280;5987;53.140;8.904;2023-06-22T10:19:18;101778.53;;;26.51;100.00
11856;BME280;5987;53.140;8.904;2023-06-22T10:22:22;101779.63;;;26.29;100.00
11856;BME280;5987;53.140;8.904;2023-06-22T10:25:27;101772.00;;;26.44;100.00
11856;BME280;5987;53.140;8.904;2023-06-22T10:28:32;101765.53;;;25.84;100.00
11856;BME280;5987;53.140;8.904;2023-06-22T10:31:38;101761.75;;;25.97;100.00
11856;BME280;5987;53.140;8.904;2023-06-22T10:34:42;101765.91;;;26.32;100.00
11856;BME280;5987;53.140;8.904;2023-06-22T10:37:46;101764.94;;;26.52;100.00
11856;BME280;5987;53.140;8.904;2023-06-22T10:40:50;101752.47;;;26.42;100.00
11856;BME280;5987;53.140;8.904;2023-06-22T10:43:56;101755.59;;;26.57;100.00
11856;BME280;5987;53.140;8.904;2023-06-22T10:47:00;101753.69;;;27.37;100.00
11856;BME280;5987;53.140;8.904;2023-06-22T10:50:06;101760.50;;;27.02;98.60
11856;BME280;5987;53.140;8.904;2023-06-22T10:53:09;101747.84;;;26.83;99.94
11856;BME280;5987;53.140;8.904;2023-06-22T10:56:13;101749.88;;;26.91;98.31
11856;BME280;5987;53.140;8.904;2023-06-22T10:59:18;101749.97;;;27.38;98.42
11856;BME280;5987;53.140;8.904;2023-06-22T11:02:24;101741.97;;;27.66;96.50
11856;BME280;5987;53.140;8.904;2023-06-22T11:05:31;101743.13;;;27.34;98.22
11856;BME280;5987;53.140;8.904;2023-06-22T11:08:35;101747.56;;;27.15;94.15
11856;BME280;5987;53.140;8.904;2023-06-22T11:11:39;101741.19;;;27.16;97.36
11856;BME280;5987;53.140;8.904;2023-06-22T11:14:44;101747.72;;;27.24;94.84
11856;BME280;5987;53.140;8.904;2023-06-22T11:17:48;101753.69;;;27.27;96.14
11856;BME280;5987;53.140;8.904;2023-06-22T11:20:51;101749.41;;;27.25;90.89
11856;BME280;5987;53.140;8.904;2023-06-22T11:23:55;101752.13;;;27.44;93.50
11856;BME280;5987;53.140;8.904;2023-06-22T11:26:59;101739.78;;;27.12;97.83
11856;BME280;5987;53.140;8.904;2023-06-22T11:30:06;101728.97;;;27.32;94.45
11856;BME280;5987;53.140;8.904;2023-06-22T11:33:10;101721.44;;;27.83;92.95
11856;BME280;5987;53.140;8.904;2023-06-22T11:36:14;101733.63;;;27.49;90.16
11856;BME280;5987;53.140;8.904;2023-06-22T11:39:18;101720.56;;;27.54;94.68
11856;BME280;5987;53.140;8.904;2023-06-22T11:42:35;101719.25;;;27.68;89.44
11856;BME280;5987;53.140;8.904;2023-06-22T11:45:41;101710.41;;;27.38;85.74
11856;BME280;5987;53.140;8.904;2023-06-22T11:48:44;101701.00;;;27.80;91.31
11856;BME280;5987;53.140;8.904;2023-06-22T11:51:48;101692.94;;;28.08;90.86
11856;BME280;5987;53.140;8.904;2023-06-22T11:54:52;101698.56;;;27.49;90.51
11856;BME280;5987;53.140;8.904;2023-06-22T11:57:57;101689.16;;;27.63;95.40
11856;BME280;5987;53.140;8.904;2023-06-22T12:01:07;101690.97;;;26.96;92.20
11856;BME280;5987;53.140;8.904;2023-06-22T12:04:10;101682.34;;;26.92;95.49
11856;BME280;5987;53.140;8.904;2023-06-22T12:07:14;101690.41;;;27.02;95.41
11856;BME280;5987;53.140;8.904;2023-06-22T12:10:18;101685.00;;;27.21;94.93
11856;BME280;5987;53.140;8.904;2023-06-22T12:13:22;101685.66;;;27.43;92.73
11856;BME280;5987;53.140;8.904;2023-06-22T12:16:27;101684.69;;;27.72;90.80
11856;BME280;5987;53.140;8.904;2023-06-22T12:19:31;101677.56;;;27.43;93.88
11856;BME280;5987;53.140;8.904;2023-06-22T12:22:35;101680.41;;;27.51;93.33
11856;BME280;5987;53.140;8.904;2023-06-22T12:25:40;101676.34;;;28.03;98.66
11856;BME280;5987;53.140;8.904;2023-06-22T12:28:44;101673.63;;;28.03;90.48
11856;BME280;5987;53.140;8.904;2023-06-22T12:31:49;101666.84;;;27.99;91.33
11856;BME280;5987;53.140;8.904;2023-06-22T12:34:53;101657.81;;;28.36;84.11
11856;BME280;5987;53.140;8.904;2023-06-22T12:37:57;101654.25;;;28.89;77.77
11856;BME280;5987;53.140;8.904;2023-06-22T12:41:01;101657.66;;;28.55;85.00
11856;BME280;5987;53.140;8.904;2023-06-22T12:44:05;101650.44;;;28.28;91.91
11856;BME280;5987;53.140;8.904;2023-06-22T12:47:10;101646.44;;;27.86;87.99
11856;BME280;5987;53.140;8.904;2023-06-22T12:50:16;101647.19;;;27.79;90.63
11856;BME280;5987;53.140;8.904;2023-06-22T12:53:19;101638.03;;;27.89;90.05
11856;BME280;5987;53.140;8.904;2023-06-22T12:56:25;101626.19;;;27.45;86.87
11856;BME280;5987;53.140;8.904;2023-06-22T12:59:29;101618.16;;;27.63;88.94
11856;BME280;5987;53.140;8.904;2023-06-22T13:02:34;101614.25;;;27.47;89.72
11856;BME280;5987;53.140;8.904;2023-06-22T13:05:39;101611.13;;;27.42;90.96
11856;BME280;5987;53.140;8.904;2023-06-22T13:08:42;101611.13;;;27.42;90.82
11856;BME280;5987;53.140;8.904;2023-06-22T13:12:08;101603.19;;;27.31;89.98
11856;BME280;5987;53.140;8.904;2023-06-22T13:15:12;101600.25;;;27.24;95.58
11856;BME280;5987;53.140;8.904;2023-06-22T13:18:17;101594.13;;;27.42;99.11
11856;BME280;5987;53.140;8.904;2023-06-22T13:21:21;101590.25;;;26.97;100.00
11856;BME280;5987;53.140;8.904;2023-06-22T13:24:25;101598.63;;;27.03;100.00
11856;BME280;5987;53.140;8.904;2023-06-22T13:27:29;101602.66;;;27.37;99.17
11856;BME280;5987;53.140;8.904;2023-06-22T13:30:33;101597.97;;;27.39;99.00
11856;BME280;5987;53.140;8.904;2023-06-22T13:33:39;101592.16;;;27.62;95.33
11856;BME280;5987;53.140;8.904;2023-06-22T13:36:43;101595.25;;;27.39;96.46
11856;BME280;5987;53.140;8.904;2023-06-22T13:39:48;101607.94;;;27.56;97.34
11856;BME280;5987;53.140;8.904;2023-06-22T13:42:52;101608.25;;;27.53;99.10
11856;BME280;5987;53.140;8.904;2023-06-22T13:45:57;101608.59;;;27.31;96.81
11856;BME280;5987;53.140;8.904;2023-06-22T13:49:03;101594.53;;;26.90;99.86
11856;BME280;5987;53.140;8.904;2023-06-22T13:52:08;101598.50;;;26.85;100.00
11856;BME280;5987;53.140;8.904;2023-06-22T13:55:16;101592.84;;;26.79;100.00
11856;BME280;5987;53.140;8.904;2023-06-22T13:58:22;101589.16;;;26.90;100.00
11856;BME280;5987;53.140;8.904;2023-06-22T14:01:25;101585.28;;;27.02;100.00
11856;BME280;5987;53.140;8.904;2023-06-22T14:04:30;101585.03;;;26.85;100.00
11856;BME280;5987;53.140;8.904;2023-06-22T14:07:34;101585.34;;;26.63;100.00
11856;BME280;5987;53.140;8.904;2023-06-22T14:10:38;101578.09;;;26.34;100.00
11856;BME280;5987;53.140;8.904;2023-06-22T14:13:42;101573.59;;;26.25;100.00
11856;BME280;5987;53.140;8.904;2023-06-22T14:16:46;101570.75;;;26.16;100.00
11856;BME280;5987;53.140;8.904;2023-06-22T14:19:53;101564.19;;;25.99;100.00
11856;BME280;5987;53.140;8.904;2023-06-22T14:22:57;101552.00;;;25.85;100.00
11856;BME280;5987;53.140;8.904;2023-06-22T14:26:01;101555.94;;;25.81;100.00
11856;BME280;5987;53.140;8.904;2023-06-22T14:29:05;101556.81;;;25.92;100.00
11856;BME280;5987;53.140;8.904;2023-06-22T14:32:09;101558.03;;;25.68;100.00
11856;BME280;5987;53.140;8.904;2023-06-22T14:35:14;101559.56;;;25.61;100.00
11856;BME280;5987;53.140;8.904;2023-06-22T14:38:19;101555.03;;;25.51;100.00
11856;BME280;5987;53.140;8.904;2023-06-22T14:41:23;101544.94;;;25.44;100.00
11856;BME280;5987;53.140;8.904;2023-06-22T14:44:27;101543.38;;;25.41;100.00
11856;BME280;5987;53.140;8.904;2023-06-22T14:47:31;101539.47;;;25.24;100.00
11856;BME280;5987;53.140;8.904;2023-06-22T14:50:36;101530.00;;;25.30;100.00
11856;BME280;5987;53.140;8.904;2023-06-22T14:53:41;101532.63;;;25.41;100.00
11856;BME280;5987;53.140;8.904;2023-06-22T14:56:45;101522.22;;;25.27;100.00
11856;BME280;5987;53.140;8.904;2023-06-22T14:59:49;101522.22;;;25.27;100.00
11856;BME280;5987;53.140;8.904;2023-06-22T15:02:53;101521.44;;;25.05;100.00
11856;BME280;5987;53.140;8.904;2023-06-22T15:05:59;101525.94;;;25.05;100.00
11856;BME280;5987;53.140;8.904;2023-06-22T15:09:02;101518.44;;;24.98;100.00
11856;BME280;5987;53.140;8.904;2023-06-22T15:12:07;101519.72;;;25.04;100.00
11856;BME280;5987;53.140;8.904;2023-06-22T15:15:19;101516.25;;;24.82;100.00
11856;BME280;5987;53.140;8.904;2023-06-22T15:18:23;101512.81;;;24.80;100.00
11856;BME280;5987;53.140;8.904;2023-06-22T15:21:28;101511.78;;;24.51;100.00
11856;BME280;5987;53.140;8.904;2023-06-22T15:24:32;101509.53;;;24.13;100.00
11856;BME280;5987;53.140;8.904;2023-06-22T15:27:36;101501.56;;;23.79;100.00
11856;BME280;5987;53.140;8.904;2023-06-22T15:30:40;101498.13;;;23.45;100.00
11856;BME280;5987;53.140;8.904;2023-06-22T15:33:44;101491.69;;;23.25;100.00
11856;BME280;5987;53.140;8.904;2023-06-22T15:36:49;101485.09;;;23.18;100.00
11856;BME280;5987;53.140;8.904;2023-06-22T15:39:54;101486.81;;;23.19;100.00
11856;BME280;5987;53.140;8.904;2023-06-22T15:42:58;101473.41;;;23.19;100.00
11856;BME280;5987;53.140;8.904;2023-06-22T15:46:03;101471.25;;;23.12;100.00
11856;BME280;5987;53.140;8.904;2023-06-22T15:49:07;101481.81;;;23.03;100.00
11856;BME280;5987;53.140;8.904;2023-06-22T15:52:12;101477.66;;;22.87;100.00
11856;BME280;5987;53.140;8.904;2023-06-22T15:55:20;101489.97;;;22.78;100.00
11856;BME280;5987;53.140;8.904;2023-06-22T15:58:24;101486.78;;;22.73;100.00
11856;BME280;5987;53.140;8.904;2023-06-22T16:01:28;101483.84;;;22.65;100.00
11856;BME280;5987;53.140;8.904;2023-06-22T16:04:32;101498.44;;;22.61;100.00
11856;BME280;5987;53.140;8.904;2023-06-22T16:07:38;101502.06;;;22.60;100.00
11856;BME280;5987;53.140;8.904;2023-06-22T16:10:43;101504.47;;;22.40;100.00